sensor_id;sensor_type;location;lat;lon;timestamp;P1;durP1;ratioP1;P2;durP2;ratioP2
35897;SDS011;21997;47.118;15.346;2022-12-07T00:01:12;10.90;;;7.23;;
35897;SDS011;21997;47.118;15.346;2022-12-07T00:03:40;9.43;;;6.03;;
35897;SDS011;21997;47.118;15.346;2022-12-07T00:06:07;8.83;;;5.87;;
35897;SDS011;21997;47.118;15.346;2022-12-07T00:08:34;8.00;;;5.63;;
35897;SDS011;21997;47.118;15.346;2022-12-07T00:11:06;8.70;;;5.70;;
35897;SDS011;21997;47.118;15.346;2022-12-07T00:13:35;7.20;;;5.80;;
35897;SDS011;21997;47.118;15.346;2022-12-07T00:16:02;8.53;;;5.70;;
35897;SDS011;21997;47.118;15.346;2022-12-07T00:18:29;7.67;;;5.60;;
35897;SDS011;21997;47.118;15.346;2022-12-07T00:21:01;10.67;;;5.73;;
35897;SDS011;21997;47.118;15.346;2022-12-07T00:23:29;9.57;;;6.00;;
35897;SDS011;21997;47.118;15.346;2022-12-07T00:25:54;10.57;;;6.77;;
35897;SDS011;21997;47.118;15.346;2022-12-07T00:28:20;12.67;;;6.70;;
35897;SDS011;21997;47.118;15.346;2022-12-07T00:30:45;8.90;;;6.03;;
35897;SDS011;21997;47.118;15.346;2022-12-07T00:33:10;10.13;;;6.30;;
35897;SDS011;21997;47.118;15.346;2022-12-07T00:35:36;10.73;;;6.50;;
35897;SDS011;21997;47.118;15.346;2022-12-07T00:38:01;12.70;;;8.00;;
35897;SDS011;21997;47.118;15.346;2022-12-07T00:40:26;18.97;;;8.63;;
35897;SDS011;21997;47.118;15.346;2022-12-07T00:42:52;14.60;;;8.43;;
35897;SDS011;21997;47.118;15.346;2022-12-07T00:45:17;18.87;;;9.30;;
35897;SDS011;21997;47.118;15.346;2022-12-07T00:47:43;13.80;;;8.63;;
35897;SDS011;21997;47.118;15.346;2022-12-07T00:50:08;12.37;;;8.17;;
35897;SDS011;21997;47.118;15.346;2022-12-07T00:52:33;14.33;;;8.30;;
35897;SDS011;21997;47.118;15.346;2022-12-07T00:54:59;10.30;;;7.50;;
35897;SDS011;21997;47.118;15.346;2022-12-07T00:57:24;13.67;;;7.53;;
35897;SDS011;21997;47.118;15.346;2022-12-07T00:59:49;10.73;;;7.57;;
35897;SDS011;21997;47.118;15.346;2022-12-07T01:02:15;10.53;;;6.80;;
35897;SDS011;21997;47.118;15.346;2022-12-07T01:04:40;12.23;;;7.63;;
35897;SDS011;21997;47.118;15.346;2022-12-07T01:07:06;9.90;;;7.77;;
35897;SDS011;21997;47.118;15.346;2022-12-07T01:09:31;11.80;;;7.67;;
35897;SDS011;21997;47.118;15.346;2022-12-07T01:11:57;11.60;;;7.17;;
35897;SDS011;21997;47.118;15.346;2022-12-07T01:14:22;12.87;;;7.63;;
35897;SDS011;21997;47.118;15.346;2022-12-07T01:16:48;13.50;;;7.57;;
35897;SDS011;21997;47.118;15.346;2022-12-07T01:19:13;11.33;;;7.70;;
35897;SDS011;21997;47.118;15.346;2022-12-07T01:21:38;13.07;;;8.03;;
35897;SDS011;21997;47.118;15.346;2022-12-07T01:24:05;12.83;;;7.83;;
35897;SDS011;21997;47.118;15.346;2022-12-07T01:26:31;14.10;;;7.23;;
35897;SDS011;21997;47.118;15.346;2022-12-07T01:28:57;11.63;;;7.17;;
35897;SDS011;21997;47.118;15.346;2022-12-07T01:31:24;11.67;;;7.77;;
35897;SDS011;21997;47.118;15.346;2022-12-07T01:33:51;13.17;;;7.50;;
35897;SDS011;21997;47.118;15.346;2022-12-07T01:36:20;11.70;;;7.67;;
35897;SDS011;21997;47.118;15.346;2022-12-07T01:38:55;11.73;;;7.47;;
35897;SDS011;21997;47.118;15.346;2022-12-07T01:41:25;12.80;;;8.60;;
35897;SDS011;21997;47.118;15.346;2022-12-07T01:46:42;11.73;;;7.47;;
35897;SDS011;21997;47.118;15.346;2022-12-07T01:49:10;11.63;;;7.57;;
35897;SDS011;21997;47.118;15.346;2022-12-07T01:51:42;11.37;;;6.90;;
35897;SDS011;21997;47.118;15.346;2022-12-07T01:54:09;10.73;;;6.80;;
35897;SDS011;21997;47.118;15.346;2022-12-07T01:56:36;11.60;;;7.57;;
35897;SDS011;21997;47.118;15.346;2022-12-07T01:59:03;9.40;;;7.00;;
35897;SDS011;21997;47.118;15.346;2022-12-07T02:01:28;8.80;;;5.70;;
35897;SDS011;21997;47.118;15.346;2022-12-07T02:03:53;8.27;;;6.00;;
35897;SDS011;21997;47.118;15.346;2022-12-07T02:06:20;6.33;;;4.57;;
35897;SDS011;21997;47.118;15.346;2022-12-07T02:08:47;6.53;;;4.73;;
35897;SDS011;21997;47.118;15.346;2022-12-07T02:11:13;6.90;;;5.83;;
35897;SDS011;21997;47.118;15.346;2022-12-07T02:13:39;6.57;;;5.17;;
35897;SDS011;21997;47.118;15.346;2022-12-07T02:16:09;7.00;;;5.00;;
35897;SDS011;21997;47.118;15.346;2022-12-07T02:21:41;7.67;;;5.30;;
35897;SDS011;21997;47.118;15.346;2022-12-07T02:29:35;5.93;;;4.40;;
35897;SDS011;21997;47.118;15.346;2022-12-07T02:34:39;7.83;;;5.10;;
35897;SDS011;21997;47.118;15.346;2022-12-07T02:37:09;5.90;;;4.67;;
35897;SDS011;21997;47.118;15.346;2022-12-07T02:39:46;5.23;;;4.00;;
35897;SDS011;21997;47.118;15.346;2022-12-07T02:42:17;5.97;;;3.77;;
35897;SDS011;21997;47.118;15.346;2022-12-07T02:44:47;6.70;;;4.43;;
35897;SDS011;21997;47.118;15.346;2022-12-07T02:47:14;8.30;;;4.77;;
35897;SDS011;21997;47.118;15.346;2022-12-07T02:49:41;9.30;;;4.63;;
35897;SDS011;21997;47.118;15.346;2022-12-07T02:52:07;5.87;;;4.47;;
35897;SDS011;21997;47.118;15.346;2022-12-07T02:54:32;8.20;;;4.43;;
35897;SDS011;21997;47.118;15.346;2022-12-07T03:18:16;7.77;;;4.07;;
35897;SDS011;21997;47.118;15.346;2022-12-07T03:20:43;5.83;;;3.90;;
35897;SDS011;21997;47.118;15.346;2022-12-07T03:23:10;4.40;;;3.33;;
35897;SDS011;21997;47.118;15.346;2022-12-07T03:25:39;4.23;;;3.03;;
35897;SDS011;21997;47.118;15.346;2022-12-07T03:28:06;5.23;;;3.77;;
35897;SDS011;21997;47.118;15.346;2022-12-07T03:30:34;3.60;;;3.20;;
35897;SDS011;21997;47.118;15.346;2022-12-07T03:33:19;3.43;;;3.03;;
35897;SDS011;21997;47.118;15.346;2022-12-07T03:35:48;6.93;;;3.67;;
35897;SDS011;21997;47.118;15.346;2022-12-07T03:38:18;6.63;;;3.70;;
35897;SDS011;21997;47.118;15.346;2022-12-07T03:43:31;5.40;;;3.90;;
35897;SDS011;21997;47.118;15.346;2022-12-07T03:46:00;7.43;;;4.07;;
35897;SDS011;21997;47.118;15.346;2022-12-07T03:52:07;8.17;;;4.13;;
35897;SDS011;21997;47.118;15.346;2022-12-07T03:54:37;6.10;;;4.63;;
35897;SDS011;21997;47.118;15.346;2022-12-07T03:57:05;7.47;;;4.50;;
35897;SDS011;21997;47.118;15.346;2022-12-07T03:59:32;6.43;;;4.27;;
35897;SDS011;21997;47.118;15.346;2022-12-07T04:02:01;7.07;;;4.83;;
35897;SDS011;21997;47.118;15.346;2022-12-07T04:04:28;5.90;;;4.30;;
35897;SDS011;21997;47.118;15.346;2022-12-07T04:06:53;7.50;;;5.53;;
35897;SDS011;21997;47.118;15.346;2022-12-07T04:09:19;13.67;;;9.30;;
35897;SDS011;21997;47.118;15.346;2022-12-07T04:11:45;10.30;;;6.93;;
35897;SDS011;21997;47.118;15.346;2022-12-07T04:14:10;9.47;;;6.27;;
35897;SDS011;21997;47.118;15.346;2022-12-07T04:16:45;8.13;;;5.20;;
35897;SDS011;21997;47.118;15.346;2022-12-07T04:19:18;6.67;;;4.57;;
35897;SDS011;21997;47.118;15.346;2022-12-07T04:21:45;6.43;;;4.60;;
35897;SDS011;21997;47.118;15.346;2022-12-07T04:24:11;7.03;;;4.60;;
35897;SDS011;21997;47.118;15.346;2022-12-07T04:26:38;6.90;;;4.40;;
35897;SDS011;21997;47.118;15.346;2022-12-07T04:29:03;6.10;;;4.50;;
35897;SDS011;21997;47.118;15.346;2022-12-07T04:31:29;6.13;;;4.40;;
35897;SDS011;21997;47.118;15.346;2022-12-07T04:33:54;6.03;;;4.40;;
35897;SDS011;21997;47.118;15.346;2022-12-07T04:36:20;8.73;;;5.67;;
35897;SDS011;21997;47.118;15.346;2022-12-07T04:38:45;8.80;;;5.57;;
35897;SDS011;21997;47.118;15.346;2022-12-07T04:41:11;8.30;;;5.23;;
35897;SDS011;21997;47.118;15.346;2022-12-07T04:43:37;8.17;;;5.33;;
35897;SDS011;21997;47.118;15.346;2022-12-07T04:46:02;8.33;;;4.77;;
35897;SDS011;21997;47.118;15.346;2022-12-07T04:48:28;6.27;;;4.13;;
35897;SDS011;21997;47.118;15.346;2022-12-07T04:50:53;6.50;;;4.40;;
35897;SDS011;21997;47.118;15.346;2022-12-07T04:53:19;5.77;;;4.90;;
35897;SDS011;21997;47.118;15.346;2022-12-07T04:55:44;7.93;;;4.73;;
35897;SDS011;21997;47.118;15.346;2022-12-07T04:58:10;8.07;;;5.77;;
35897;SDS011;21997;47.118;15.346;2022-12-07T05:00:36;10.23;;;5.33;;
35897;SDS011;21997;47.118;15.346;2022-12-07T05:03:02;8.17;;;5.47;;
35897;SDS011;21997;47.118;15.346;2022-12-07T05:05:27;10.60;;;6.20;;
35897;SDS011;21997;47.118;15.346;2022-12-07T05:07:53;8.87;;;5.23;;
35897;SDS011;21997;47.118;15.346;2022-12-07T05:10:18;7.83;;;5.63;;
35897;SDS011;21997;47.118;15.346;2022-12-07T05:12:44;7.87;;;5.60;;
35897;SDS011;21997;47.118;15.346;2022-12-07T05:15:10;8.37;;;5.17;;
35897;SDS011;21997;47.118;15.346;2022-12-07T05:17:36;6.40;;;5.00;;
35897;SDS011;21997;47.118;15.346;2022-12-07T05:20:02;7.37;;;4.60;;
35897;SDS011;21997;47.118;15.346;2022-12-07T05:22:30;8.83;;;4.53;;
35897;SDS011;21997;47.118;15.346;2022-12-07T05:24:56;10.00;;;4.60;;
35897;SDS011;21997;47.118;15.346;2022-12-07T05:27:21;5.60;;;4.30;;
35897;SDS011;21997;47.118;15.346;2022-12-07T05:29:47;6.80;;;4.60;;
35897;SDS011;21997;47.118;15.346;2022-12-07T05:32:12;5.83;;;3.90;;
35897;SDS011;21997;47.118;15.346;2022-12-07T05:34:38;6.50;;;3.67;;
35897;SDS011;21997;47.118;15.346;2022-12-07T05:37:03;6.00;;;3.87;;
35897;SDS011;21997;47.118;15.346;2022-12-07T05:39:29;4.03;;;3.60;;
35897;SDS011;21997;47.118;15.346;2022-12-07T05:41:54;5.30;;;3.70;;
35897;SDS011;21997;47.118;15.346;2022-12-07T05:44:38;4.93;;;3.90;;
35897;SDS011;21997;47.118;15.346;2022-12-07T05:47:05;4.63;;;3.27;;
35897;SDS011;21997;47.118;15.346;2022-12-07T05:49:30;5.57;;;4.37;;
35897;SDS011;21997;47.118;15.346;2022-12-07T05:51:56;6.20;;;4.03;;
35897;SDS011;21997;47.118;15.346;2022-12-07T05:54:22;9.03;;;5.70;;
35897;SDS011;21997;47.118;15.346;2022-12-07T05:56:47;13.70;;;7.70;;
35897;SDS011;21997;47.118;15.346;2022-12-07T05:59:13;14.50;;;7.93;;
35897;SDS011;21997;47.118;15.346;2022-12-07T06:01:54;15.43;;;8.00;;
35897;SDS011;21997;47.118;15.346;2022-12-07T06:04:24;14.87;;;9.43;;
35897;SDS011;21997;47.118;15.346;2022-12-07T06:06:51;21.90;;;11.13;;
35897;SDS011;21997;47.118;15.346;2022-12-07T06:09:17;28.23;;;13.40;;
35897;SDS011;21997;47.118;15.346;2022-12-07T06:11:43;38.73;;;17.43;;
35897;SDS011;21997;47.118;15.346;2022-12-07T06:14:27;28.93;;;13.70;;
35897;SDS011;21997;47.118;15.346;2022-12-07T06:16:52;32.63;;;15.90;;
35897;SDS011;21997;47.118;15.346;2022-12-07T06:19:18;33.10;;;13.63;;
35897;SDS011;21997;47.118;15.346;2022-12-07T06:21:43;33.43;;;12.57;;
35897;SDS011;21997;47.118;15.346;2022-12-07T06:24:12;23.87;;;10.03;;
35897;SDS011;21997;47.118;15.346;2022-12-07T06:26:38;15.07;;;8.80;;
35897;SDS011;21997;47.118;15.346;2022-12-07T06:29:04;17.53;;;8.10;;
35897;SDS011;21997;47.118;15.346;2022-12-07T06:31:29;22.57;;;10.30;;
35897;SDS011;21997;47.118;15.346;2022-12-07T06:33:58;21.00;;;9.77;;
35897;SDS011;21997;47.118;15.346;2022-12-07T06:36:24;25.33;;;10.13;;
35897;SDS011;21997;47.118;15.346;2022-12-07T06:38:50;19.73;;;9.37;;
35897;SDS011;21997;47.118;15.346;2022-12-07T06:41:15;18.40;;;9.90;;
35897;SDS011;21997;47.118;15.346;2022-12-07T06:43:41;16.17;;;8.80;;
35897;SDS011;21997;47.118;15.346;2022-12-07T06:46:07;21.87;;;9.50;;
35897;SDS011;21997;47.118;15.346;2022-12-07T06:48:32;16.93;;;9.27;;
35897;SDS011;21997;47.118;15.346;2022-12-07T06:50:58;14.63;;;9.03;;
35897;SDS011;21997;47.118;15.346;2022-12-07T06:53:23;19.00;;;10.13;;
35897;SDS011;21997;47.118;15.346;2022-12-07T06:55:49;14.53;;;9.10;;
35897;SDS011;21997;47.118;15.346;2022-12-07T06:58:14;18.03;;;9.77;;
35897;SDS011;21997;47.118;15.346;2022-12-07T07:00:40;18.20;;;10.40;;
35897;SDS011;21997;47.118;15.346;2022-12-07T07:03:06;17.73;;;8.70;;
35897;SDS011;21997;47.118;15.346;2022-12-07T07:05:31;18.23;;;9.20;;
35897;SDS011;21997;47.118;15.346;2022-12-07T07:07:57;19.33;;;10.17;;
35897;SDS011;21997;47.118;15.346;2022-12-07T07:10:22;23.77;;;13.00;;
35897;SDS011;21997;47.118;15.346;2022-12-07T07:12:47;22.23;;;13.33;;
35897;SDS011;21997;47.118;15.346;2022-12-07T07:15:13;21.23;;;13.50;;
35897;SDS011;21997;47.118;15.346;2022-12-07T07:17:38;24.63;;;13.57;;
35897;SDS011;21997;47.118;15.346;2022-12-07T07:20:04;24.27;;;13.37;;
35897;SDS011;21997;47.118;15.346;2022-12-07T07:22:30;25.93;;;14.30;;
35897;SDS011;21997;47.118;15.346;2022-12-07T07:24:55;23.93;;;14.87;;
35897;SDS011;21997;47.118;15.346;2022-12-07T07:27:21;22.73;;;12.50;;
35897;SDS011;21997;47.118;15.346;2022-12-07T07:29:46;19.27;;;11.50;;
35897;SDS011;21997;47.118;15.346;2022-12-07T07:32:12;16.77;;;11.00;;
35897;SDS011;21997;47.118;15.346;2022-12-07T07:34:37;17.93;;;10.70;;
35897;SDS011;21997;47.118;15.346;2022-12-07T07:37:02;14.17;;;8.63;;
35897;SDS011;21997;47.118;15.346;2022-12-07T07:39:28;14.27;;;8.53;;
35897;SDS011;21997;47.118;15.346;2022-12-07T07:41:53;10.60;;;8.63;;
35897;SDS011;21997;47.118;15.346;2022-12-07T07:44:18;14.93;;;9.40;;
35897;SDS011;21997;47.118;15.346;2022-12-07T07:46:44;14.63;;;9.67;;
35897;SDS011;21997;47.118;15.346;2022-12-07T07:49:10;12.67;;;9.53;;
35897;SDS011;21997;47.118;15.346;2022-12-07T07:51:36;14.90;;;10.00;;
35897;SDS011;21997;47.118;15.346;2022-12-07T07:54:02;13.57;;;9.17;;
35897;SDS011;21997;47.118;15.346;2022-12-07T07:56:27;14.53;;;9.63;;
35897;SDS011;21997;47.118;15.346;2022-12-07T07:58:53;17.30;;;10.57;;
35897;SDS011;21997;47.118;15.346;2022-12-07T08:01:19;16.10;;;9.43;;
35897;SDS011;21997;47.118;15.346;2022-12-07T08:03:45;19.17;;;11.87;;
35897;SDS011;21997;47.118;15.346;2022-12-07T08:06:11;29.40;;;15.13;;
35897;SDS011;21997;47.118;15.346;2022-12-07T08:08:36;26.73;;;17.40;;
35897;SDS011;21997;47.118;15.346;2022-12-07T08:11:05;22.03;;;15.17;;
35897;SDS011;21997;47.118;15.346;2022-12-07T08:13:30;26.57;;;17.50;;
35897;SDS011;21997;47.118;15.346;2022-12-07T08:15:56;29.57;;;16.87;;
35897;SDS011;21997;47.118;15.346;2022-12-07T08:18:21;24.07;;;14.77;;
35897;SDS011;21997;47.118;15.346;2022-12-07T08:20:47;20.63;;;12.37;;
35897;SDS011;21997;47.118;15.346;2022-12-07T08:23:12;20.90;;;14.53;;
35897;SDS011;21997;47.118;15.346;2022-12-07T08:25:37;28.43;;;13.70;;
35897;SDS011;21997;47.118;15.346;2022-12-07T08:28:03;20.00;;;13.53;;
35897;SDS011;21997;47.118;15.346;2022-12-07T08:30:29;16.47;;;10.73;;
35897;SDS011;21997;47.118;15.346;2022-12-07T08:32:54;18.60;;;9.30;;
35897;SDS011;21997;47.118;15.346;2022-12-07T08:35:20;13.43;;;10.33;;
35897;SDS011;21997;47.118;15.346;2022-12-07T08:37:46;13.83;;;9.17;;
35897;SDS011;21997;47.118;15.346;2022-12-07T08:40:11;10.00;;;7.43;;
35897;SDS011;21997;47.118;15.346;2022-12-07T08:42:41;11.27;;;6.87;;
35897;SDS011;21997;47.118;15.346;2022-12-07T08:45:10;13.13;;;8.23;;
35897;SDS011;21997;47.118;15.346;2022-12-07T08:47:41;10.13;;;7.87;;
35897;SDS011;21997;47.118;15.346;2022-12-07T08:50:10;20.80;;;8.63;;
35897;SDS011;21997;47.118;15.346;2022-12-07T08:52:36;15.57;;;9.27;;
35897;SDS011;21997;47.118;15.346;2022-12-07T08:55:02;11.67;;;9.73;;
35897;SDS011;21997;47.118;15.346;2022-12-07T08:57:28;13.43;;;9.20;;
35897;SDS011;21997;47.118;15.346;2022-12-07T08:59:54;13.00;;;9.67;;
35897;SDS011;21997;47.118;15.346;2022-12-07T09:02:20;13.10;;;9.47;;
35897;SDS011;21997;47.118;15.346;2022-12-07T09:04:45;13.00;;;7.90;;
35897;SDS011;21997;47.118;15.346;2022-12-07T09:07:10;12.87;;;8.60;;
35897;SDS011;21997;47.118;15.346;2022-12-07T09:09:36;15.80;;;10.80;;
35897;SDS011;21997;47.118;15.346;2022-12-07T09:12:01;13.60;;;9.17;;
35897;SDS011;21997;47.118;15.346;2022-12-07T09:14:27;13.93;;;7.50;;
35897;SDS011;21997;47.118;15.346;2022-12-07T09:16:53;12.87;;;7.63;;
35897;SDS011;21997;47.118;15.346;2022-12-07T09:19:18;11.00;;;7.73;;
35897;SDS011;21997;47.118;15.346;2022-12-07T09:21:43;12.13;;;8.03;;
35897;SDS011;21997;47.118;15.346;2022-12-07T09:24:09;12.50;;;7.13;;
35897;SDS011;21997;47.118;15.346;2022-12-07T09:26:34;13.63;;;7.67;;
35897;SDS011;21997;47.118;15.346;2022-12-07T09:29:00;7.87;;;6.47;;
35897;SDS011;21997;47.118;15.346;2022-12-07T09:31:26;9.27;;;7.07;;
35897;SDS011;21997;47.118;15.346;2022-12-07T09:33:55;10.97;;;7.93;;
35897;SDS011;21997;47.118;15.346;2022-12-07T09:36:23;11.30;;;7.70;;
35897;SDS011;21997;47.118;15.346;2022-12-07T09:38:49;12.90;;;7.27;;
35897;SDS011;21997;47.118;15.346;2022-12-07T09:41:14;9.87;;;6.93;;
35897;SDS011;21997;47.118;15.346;2022-12-07T09:43:40;16.50;;;9.00;;
35897;SDS011;21997;47.118;15.346;2022-12-07T09:46:08;11.23;;;8.33;;
35897;SDS011;21997;47.118;15.346;2022-12-07T09:48:36;11.73;;;7.40;;
35897;SDS011;21997;47.118;15.346;2022-12-07T09:51:12;9.60;;;7.83;;
35897;SDS011;21997;47.118;15.346;2022-12-07T09:53:39;11.27;;;7.50;;
35897;SDS011;21997;47.118;15.346;2022-12-07T09:56:04;11.27;;;8.10;;
35897;SDS011;21997;47.118;15.346;2022-12-07T09:58:31;10.63;;;7.80;;
35897;SDS011;21997;47.118;15.346;2022-12-07T10:01:05;9.00;;;7.53;;
35897;SDS011;21997;47.118;15.346;2022-12-07T10:03:34;9.40;;;6.87;;
35897;SDS011;21997;47.118;15.346;2022-12-07T10:06:01;10.93;;;6.60;;
35897;SDS011;21997;47.118;15.346;2022-12-07T10:08:27;9.07;;;6.93;;
35897;SDS011;21997;47.118;15.346;2022-12-07T10:10:53;9.17;;;7.03;;
35897;SDS011;21997;47.118;15.346;2022-12-07T10:13:22;10.40;;;7.03;;
35897;SDS011;21997;47.118;15.346;2022-12-07T10:15:59;9.07;;;6.77;;
35897;SDS011;21997;47.118;15.346;2022-12-07T10:18:32;11.50;;;6.97;;
35897;SDS011;21997;47.118;15.346;2022-12-07T10:23:32;13.00;;;9.30;;
35897;SDS011;21997;47.118;15.346;2022-12-07T10:25:58;17.27;;;9.43;;
35897;SDS011;21997;47.118;15.346;2022-12-07T10:28:27;12.07;;;8.63;;
35897;SDS011;21997;47.118;15.346;2022-12-07T10:31:02;14.40;;;9.17;;
35897;SDS011;21997;47.118;15.346;2022-12-07T10:33:59;13.83;;;8.43;;
35897;SDS011;21997;47.118;15.346;2022-12-07T10:41:27;11.37;;;8.07;;
35897;SDS011;21997;47.118;15.346;2022-12-07T10:43:53;14.80;;;8.13;;
35897;SDS011;21997;47.118;15.346;2022-12-07T10:49:03;11.07;;;7.60;;
35897;SDS011;21997;47.118;15.346;2022-12-07T10:54:29;12.57;;;7.80;;
35897;SDS011;21997;47.118;15.346;2022-12-07T10:57:25;9.33;;;6.23;;
35897;SDS011;21997;47.118;15.346;2022-12-07T11:05:52;10.50;;;6.60;;
35897;SDS011;21997;47.118;15.346;2022-12-07T11:11:33;11.33;;;5.77;;
35897;SDS011;21997;47.118;15.346;2022-12-07T11:25:04;5.63;;;4.37;;
35897;SDS011;21997;47.118;15.346;2022-12-07T11:36:23;5.50;;;4.80;;
35897;SDS011;21997;47.118;15.346;2022-12-07T11:39:02;6.30;;;4.87;;
35897;SDS011;21997;47.118;15.346;2022-12-07T11:41:31;4.87;;;4.37;;
35897;SDS011;21997;47.118;15.346;2022-12-07T11:44:22;6.23;;;5.37;;
35897;SDS011;21997;47.118;15.346;2022-12-07T11:47:05;8.13;;;5.67;;
35897;SDS011;21997;47.118;15.346;2022-12-07T11:49:40;8.33;;;6.00;;
35897;SDS011;21997;47.118;15.346;2022-12-07T11:52:43;8.40;;;6.60;;
35897;SDS011;21997;47.118;15.346;2022-12-07T11:55:16;6.37;;;5.27;;
35897;SDS011;21997;47.118;15.346;2022-12-07T11:57:48;7.33;;;4.80;;
35897;SDS011;21997;47.118;15.346;2022-12-07T12:00:17;4.93;;;4.43;;
35897;SDS011;21997;47.118;15.346;2022-12-07T12:02:48;6.20;;;4.63;;
35897;SDS011;21997;47.118;15.346;2022-12-07T12:05:19;6.80;;;4.37;;
35897;SDS011;21997;47.118;15.346;2022-12-07T12:07:46;6.23;;;4.50;;
35897;SDS011;21997;47.118;15.346;2022-12-07T12:10:17;4.17;;;3.77;;
35897;SDS011;21997;47.118;15.346;2022-12-07T12:20:50;6.70;;;4.67;;
35897;SDS011;21997;47.118;15.346;2022-12-07T12:25:53;5.30;;;4.37;;
35897;SDS011;21997;47.118;15.346;2022-12-07T12:33:49;5.13;;;4.63;;
35897;SDS011;21997;47.118;15.346;2022-12-07T12:38:48;4.40;;;3.90;;
35897;SDS011;21997;47.118;15.346;2022-12-07T12:51:51;6.20;;;4.53;;
35897;SDS011;21997;47.118;15.346;2022-12-07T12:54:21;5.37;;;4.80;;
35897;SDS011;21997;47.118;15.346;2022-12-07T13:02:27;5.40;;;4.10;;
35897;SDS011;21997;47.118;15.346;2022-12-07T13:05:02;4.73;;;4.30;;
35897;SDS011;21997;47.118;15.346;2022-12-07T13:13:02;4.43;;;4.03;;
35897;SDS011;21997;47.118;15.346;2022-12-07T13:20:59;6.20;;;4.20;;
35897;SDS011;21997;47.118;15.346;2022-12-07T13:23:32;3.97;;;3.17;;
35897;SDS011;21997;47.118;15.346;2022-12-07T13:28:38;6.20;;;4.93;;
35897;SDS011;21997;47.118;15.346;2022-12-07T13:33:34;3.67;;;3.20;;
35897;SDS011;21997;47.118;15.346;2022-12-07T13:36:00;6.03;;;4.03;;
35897;SDS011;21997;47.118;15.346;2022-12-07T13:38:31;5.07;;;3.17;;
35897;SDS011;21997;47.118;15.346;2022-12-07T13:41:01;5.07;;;2.60;;
35897;SDS011;21997;47.118;15.346;2022-12-07T13:43:30;3.13;;;2.63;;
35897;SDS011;21997;47.118;15.346;2022-12-07T13:45:58;3.87;;;3.40;;
35897;SDS011;21997;47.118;15.346;2022-12-07T13:48:32;3.33;;;2.90;;
35897;SDS011;21997;47.118;15.346;2022-12-07T13:51:01;5.87;;;3.13;;
35897;SDS011;21997;47.118;15.346;2022-12-07T13:53:28;4.77;;;3.40;;
35897;SDS011;21997;47.118;15.346;2022-12-07T13:55:56;4.50;;;3.57;;
35897;SDS011;21997;47.118;15.346;2022-12-07T13:58:22;4.10;;;3.10;;
35897;SDS011;21997;47.118;15.346;2022-12-07T14:00:48;4.67;;;3.63;;
35897;SDS011;21997;47.118;15.346;2022-12-07T14:05:42;3.70;;;2.90;;
35897;SDS011;21997;47.118;15.346;2022-12-07T14:15:55;4.33;;;3.70;;
35897;SDS011;21997;47.118;15.346;2022-12-07T14:18:40;3.93;;;3.53;;
35897;SDS011;21997;47.118;15.346;2022-12-07T14:21:14;5.83;;;3.53;;
35897;SDS011;21997;47.118;15.346;2022-12-07T14:23:41;4.20;;;3.40;;
35897;SDS011;21997;47.118;15.346;2022-12-07T14:26:07;4.53;;;3.33;;
35897;SDS011;21997;47.118;15.346;2022-12-07T14:28:40;3.83;;;3.40;;
35897;SDS011;21997;47.118;15.346;2022-12-07T14:31:27;5.53;;;3.83;;
35897;SDS011;21997;47.118;15.346;2022-12-07T14:33:52;5.47;;;4.27;;
35897;SDS011;21997;47.118;15.346;2022-12-07T14:36:18;5.80;;;4.43;;
35897;SDS011;21997;47.118;15.346;2022-12-07T14:38:43;4.77;;;4.30;;
35897;SDS011;21997;47.118;15.346;2022-12-07T14:41:16;5.47;;;3.83;;
35897;SDS011;21997;47.118;15.346;2022-12-07T14:44:01;4.93;;;3.97;;
35897;SDS011;21997;47.118;15.346;2022-12-07T14:46:27;5.33;;;3.50;;
35897;SDS011;21997;47.118;15.346;2022-12-07T14:48:52;5.53;;;3.83;;
35897;SDS011;21997;47.118;15.346;2022-12-07T14:51:18;4.77;;;3.97;;
35897;SDS011;21997;47.118;15.346;2022-12-07T14:53:48;5.03;;;4.23;;
35897;SDS011;21997;47.118;15.346;2022-12-07T14:56:15;5.10;;;3.93;;
35897;SDS011;21997;47.118;15.346;2022-12-07T14:58:40;4.70;;;4.20;;
35897;SDS011;21997;47.118;15.346;2022-12-07T15:01:06;4.83;;;4.03;;
35897;SDS011;21997;47.118;15.346;2022-12-07T15:03:31;6.70;;;4.40;;
35897;SDS011;21997;47.118;15.346;2022-12-07T15:05:57;5.00;;;4.20;;
35897;SDS011;21997;47.118;15.346;2022-12-07T15:08:22;9.23;;;4.80;;
35897;SDS011;21997;47.118;15.346;2022-12-07T15:10:48;7.60;;;4.20;;
35897;SDS011;21997;47.118;15.346;2022-12-07T15:13:13;8.13;;;5.57;;
35897;SDS011;21997;47.118;15.346;2022-12-07T15:15:57;9.70;;;5.20;;
35897;SDS011;21997;47.118;15.346;2022-12-07T15:18:23;7.80;;;6.20;;
35897;SDS011;21997;47.118;15.346;2022-12-07T15:20:52;10.30;;;4.87;;
35897;SDS011;21997;47.118;15.346;2022-12-07T15:23:20;6.37;;;4.83;;
35897;SDS011;21997;47.118;15.346;2022-12-07T15:25:47;8.43;;;5.80;;
35897;SDS011;21997;47.118;15.346;2022-12-07T15:28:13;10.47;;;5.87;;
35897;SDS011;21997;47.118;15.346;2022-12-07T15:30:40;8.27;;;6.27;;
35897;SDS011;21997;47.118;15.346;2022-12-07T15:33:07;10.63;;;6.10;;
35897;SDS011;21997;47.118;15.346;2022-12-07T15:35:33;6.90;;;5.73;;
35897;SDS011;21997;47.118;15.346;2022-12-07T15:37:58;11.60;;;5.50;;
35897;SDS011;21997;47.118;15.346;2022-12-07T15:40:23;8.87;;;5.60;;
35897;SDS011;21997;47.118;15.346;2022-12-07T15:42:49;6.40;;;5.00;;
35897;SDS011;21997;47.118;15.346;2022-12-07T15:45:14;5.57;;;4.93;;
35897;SDS011;21997;47.118;15.346;2022-12-07T15:47:41;7.63;;;5.20;;
35897;SDS011;21997;47.118;15.346;2022-12-07T15:50:08;7.33;;;4.73;;
35897;SDS011;21997;47.118;15.346;2022-12-07T15:52:35;6.47;;;4.97;;
35897;SDS011;21997;47.118;15.346;2022-12-07T15:55:01;6.90;;;5.10;;
35897;SDS011;21997;47.118;15.346;2022-12-07T15:57:28;6.33;;;4.30;;
35897;SDS011;21997;47.118;15.346;2022-12-07T15:59:54;5.20;;;4.27;;
35897;SDS011;21997;47.118;15.346;2022-12-07T16:02:20;6.63;;;4.17;;
35897;SDS011;21997;47.118;15.346;2022-12-07T16:04:45;6.30;;;4.27;;
35897;SDS011;21997;47.118;15.346;2022-12-07T16:07:11;8.80;;;5.27;;
35897;SDS011;21997;47.118;15.346;2022-12-07T16:09:37;6.43;;;4.53;;
35897;SDS011;21997;47.118;15.346;2022-12-07T16:12:03;4.90;;;4.43;;
35897;SDS011;21997;47.118;15.346;2022-12-07T16:14:29;9.00;;;6.50;;
35897;SDS011;21997;47.118;15.346;2022-12-07T16:16:54;7.87;;;6.33;;
35897;SDS011;21997;47.118;15.346;2022-12-07T16:19:20;7.83;;;5.57;;
35897;SDS011;21997;47.118;15.346;2022-12-07T16:21:45;10.63;;;6.70;;
35897;SDS011;21997;47.118;15.346;2022-12-07T16:24:10;8.37;;;6.20;;
35897;SDS011;21997;47.118;15.346;2022-12-07T16:26:37;7.37;;;6.00;;
35897;SDS011;21997;47.118;15.346;2022-12-07T16:29:03;8.97;;;6.77;;
35897;SDS011;21997;47.118;15.346;2022-12-07T16:31:28;8.93;;;6.23;;
35897;SDS011;21997;47.118;15.346;2022-12-07T16:33:55;7.97;;;7.03;;
35897;SDS011;21997;47.118;15.346;2022-12-07T16:36:22;9.93;;;7.23;;
35897;SDS011;21997;47.118;15.346;2022-12-07T16:38:49;12.10;;;7.37;;
35897;SDS011;21997;47.118;15.346;2022-12-07T16:41:15;10.00;;;7.40;;
35897;SDS011;21997;47.118;15.346;2022-12-07T16:43:40;10.63;;;7.37;;
35897;SDS011;21997;47.118;15.346;2022-12-07T16:46:06;9.07;;;7.60;;
35897;SDS011;21997;47.118;15.346;2022-12-07T16:48:33;9.93;;;7.77;;
35897;SDS011;21997;47.118;15.346;2022-12-07T16:51:02;12.63;;;8.63;;
35897;SDS011;21997;47.118;15.346;2022-12-07T16:53:28;12.37;;;8.13;;